Benton Harbor, MI (49022)

11:19 PM EST on November 27, 2014 (GMT -0500)
MesoWest Swmrec MI US MAWN | Change Station
CLOSE
Current Station
Personal Weather Station
Location: Benton Harbor, MI
Elevation: 722 ft
Nearby Weather Stations

Elev 722 ft 42.08 °N, 86.36 °W | Updated 2 hours ago

Overcast
Overcast
24 °F
Feels Like 16 °F
N
7
Wind Variable Wind from SSW
Gusts 0.0 mph

Today
High -- | Low -- °F
--% Chance of Precip.
Yesterday
High -- | Low -- °F
Precip. -- in
7:50 AM 5:16 PM
Waxing Crescent, 36% visible
Pressure 30.39 in
Visibility 10.0 miles
Clouds Overcast 3400 ft
Windchill 16 °F
Dew Point 14 °F
Humidity 64%
Rainfall -999.00 in
Snow Depth Not available.
UV 0 out of 12
Pollen .10 out of 12
Air Quality Not available.
Flu Activity Not available.
METAR KBEH 280353Z AUTO 31005KT 10SM OVC034 M04/M11 A3036 RMK AO2 SNB03E12 SLP289 P0000 T10441106

More Conditions Fewer Conditions

Pressure 30.39 in
Visibility 10.0 miles
Clouds Overcast 3400 ft
Windchill 16 °F
Dew Point 14 °F
Humidity 64%
Rainfall -999.00 in
Snow Depth Not available.
UV 0 out of 12
Pollen .10 out of 12
Air Quality Not available.
Flu Activity Not available.
METAR KBEH 280353Z AUTO 31005KT 10SM OVC034 M04/M11 A3036 RMK AO2 SNB03E12 SLP289 P0000 T10441106

More Conditions Fewer Conditions

10-Day Weather Forecast

Almanac

Astronomy

Nov. 27, 2014 Rise Set
Actual Time
Civil Twilight
Nautical Twilight
Astronomical Twilight
Moon
Length of Visible Light
Length of Day
Tomorrow will be .
, % of the Moon is Illuminated

Today's Extremes

State Highs State Lows

Community

WunderPhotos

Upload Photos

1,774,179 photos uploaded!

WunderBlogs® & News

Nearby

Air Quality

  Air Quality AQ Index Pollutant
Not available.

Snow Depth

Station Depth Elevation

Earthquake Activity

City Distance Mag. Time & Date
Minimum magnitude displayed is 2.5.

Coastal Water Temperatures

Place Temperature

Nearby Weather Stations